Time,TemperatureF,DewpointF,PressureIn,WindDirection,WindDirectionDegrees,WindSpeedMPH,WindSpeedGustMPH,Humidity,HourlyPrecipIn,Conditions,Clouds,dailyrainin,SoftwareType,DateUTC
2013-03-18 00:00:00,62.5,58.9,29.79,SSE,158,0.0,4.0,88,0.00,,---,0.00,VWS V14.01,2013-03-18 05:00:00,
2013-03-18 00:05:00,62.7,58.8,29.79,SSE,158,2.9,3.6,87,0.00,,---,0.00,VWS V14.01,2013-03-18 05:05:00,
2013-03-18 00:10:00,62.9,59.0,29.79,SSE,158,6.0,6.0,87,0.00,,---,0.00,VWS V14.01,2013-03-18 05:10:00,
2013-03-18 00:15:00,63.1,59.1,29.79,SSE,158,2.7,3.8,87,0.00,,---,0.00,VWS V14.01,2013-03-18 05:15:00,
2013-03-18 00:20:00,63.2,59.3,29.79,SSE,158,3.1,3.4,87,0.00,,---,0.00,VWS V14.01,2013-03-18 05:20:00,
2013-03-18 00:25:00,63.4,59.5,29.79,SSE,158,3.4,4.3,87,0.00,,---,0.00,VWS V14.01,2013-03-18 05:25:00,
2013-03-18 00:30:00,63.6,59.7,29.79,SSE,158,4.0,4.0,87,0.00,,---,0.00,VWS V14.01,2013-03-18 05:30:00,
2013-03-18 00:35:00,63.6,59.7,29.79,SE,135,3.1,3.8,87,0.00,,---,0.00,VWS V14.01,2013-03-18 05:35:00,
2013-03-18 00:40:00,63.6,59.7,29.79,SSE,158,2.5,4.3,87,0.00,,---,0.00,VWS V14.01,2013-03-18 05:40:00,
2013-03-18 00:45:00,63.8,60.2,29.76,SSE,158,1.6,6.0,88,0.00,,---,0.00,VWS V14.01,2013-03-18 05:45:00,
2013-03-18 00:50:00,63.8,59.8,29.76,SSE,158,3.4,3.4,87,0.00,,---,0.00,VWS V14.01,2013-03-18 05:50:00,
2013-03-18 00:55:00,63.8,59.8,29.76,SSE,158,1.6,1.6,87,0.00,,---,0.00,VWS V14.01,2013-03-18 05:55:00,
2013-03-18 01:00:00,63.8,60.2,29.79,SSE,158,4.0,4.0,88,0.00,,---,0.00,VWS V14.01,2013-03-18 06:00:00,
2013-03-18 01:05:00,64.0,60.3,29.79,SSE,158,3.8,4.0,88,0.00,,---,0.00,VWS V14.01,2013-03-18 06:05:00,
2013-03-18 01:10:00,64.1,60.8,29.79,SSE,158,5.4,5.4,89,0.00,,---,0.00,VWS V14.01,2013-03-18 06:10:00,
2013-03-18 01:15:00,64.1,60.8,29.79,SSE,158,2.2,2.2,89,0.00,,---,0.00,VWS V14.01,2013-03-18 06:15:00,
2013-03-18 01:20:00,64.1,60.5,29.79,SE,135,1.6,2.5,88,0.00,,---,0.00,VWS V14.01,2013-03-18 06:20:00,
2013-03-18 01:25:00,64.3,61.0,29.79,SSE,158,2.9,2.9,89,0.00,,---,0.00,VWS V14.01,2013-03-18 06:25:00,
2013-03-18 01:30:00,64.3,61.0,29.79,SSE,158,2.7,2.7,89,0.00,,---,0.00,VWS V14.01,2013-03-18 06:30:00,
2013-03-18 01:35:00,64.5,61.2,29.79,SSE,158,1.1,1.1,89,0.00,,---,0.00,VWS V14.01,2013-03-18 06:35:00,
2013-03-18 01:40:00,64.7,61.7,29.79,SSE,158,4.0,4.0,90,0.00,,---,0.00,VWS V14.01,2013-03-18 06:40:00,
2013-03-18 01:45:00,64.9,61.9,29.76,SSW,202,4.3,4.3,90,0.00,,---,0.00,VWS V14.01,2013-03-18 06:45:00,
2013-03-18 01:50:00,65.0,62.0,29.76,SSE,158,3.4,3.4,90,0.00,,---,0.00,VWS V14.01,2013-03-18 06:50:00,
2013-03-18 01:55:00,65.0,62.0,29.76,SSE,158,0.9,5.6,90,0.00,,---,0.00,VWS V14.01,2013-03-18 06:55:00,
2013-03-18 02:00:00,65.2,62.2,29.76,SSE,158,3.8,3.8,90,0.00,,---,0.00,VWS V14.01,2013-03-18 07:00:00,
2013-03-18 02:05:00,65.2,62.2,29.76,SE,135,2.2,2.2,90,0.00,,---,0.00,VWS V14.01,2013-03-18 07:05:00,
2013-03-18 02:10:00,65.2,62.2,29.76,SSE,158,2.0,2.0,90,0.00,,---,0.00,VWS V14.01,2013-03-18 07:10:00,
2013-03-18 02:15:00,65.2,62.2,29.79,SSE,158,4.0,4.0,90,0.00,,---,0.00,VWS V14.01,2013-03-18 07:15:00,
2013-03-18 02:20:00,65.2,62.2,29.79,SSE,158,2.7,2.7,90,0.00,,---,0.00,VWS V14.01,2013-03-18 07:20:00,
2013-03-18 02:25:00,65.4,62.4,29.79,SSE,158,3.4,3.8,90,0.00,,---,0.00,VWS V14.01,2013-03-18 07:25:00,
2013-03-18 02:30:00,65.4,62.1,29.79,ESE,112,3.1,3.8,89,0.00,,---,0.00,VWS V14.01,2013-03-18 07:30:00,
2013-03-18 02:35:00,65.4,62.4,29.79,SSE,158,2.7,3.6,90,0.00,,---,0.00,VWS V14.01,2013-03-18 07:35:00,
2013-03-18 02:40:00,65.2,62.2,29.79,SSE,158,4.9,4.9,90,0.00,,---,0.00,VWS V14.01,2013-03-18 07:40:00,
2013-03-18 02:45:00,65.2,62.5,29.79,SSE,158,1.3,4.7,91,0.00,,---,0.00,VWS V14.01,2013-03-18 07:45:00,
2013-03-18 02:50:00,65.2,62.5,29.79,SSE,158,1.1,4.3,91,0.00,,---,0.00,VWS V14.01,2013-03-18 07:50:00,
2013-03-18 02:55:00,65.2,62.5,29.79,SSW,202,1.3,1.6,91,0.00,,---,0.00,VWS V14.01,2013-03-18 07:55:00,
2013-03-18 03:00:00,65.2,62.5,29.79,South,180,0.0,4.3,91,0.00,,---,0.00,VWS V14.01,2013-03-18 08:00:00,
2013-03-18 03:05:00,65.2,62.8,29.79,SSE,158,6.5,6.5,92,0.00,,---,0.00,VWS V14.01,2013-03-18 08:05:00,
2013-03-18 03:10:00,65.2,62.5,29.79,SSE,158,2.0,5.8,91,0.00,,---,0.00,VWS V14.01,2013-03-18 08:10:00,
2013-03-18 03:15:00,65.4,62.7,29.79,ESE,112,2.9,2.9,91,0.00,,---,0.00,VWS V14.01,2013-03-18 08:15:00,
2013-03-18 03:20:00,65.4,62.7,29.79,SE,135,4.0,6.7,91,0.00,,---,0.00,VWS V14.01,2013-03-18 08:20:00,
2013-03-18 03:25:00,65.4,62.7,29.79,SSW,202,5.8,5.8,91,0.00,,---,0.00,VWS V14.01,2013-03-18 08:25:00,
2013-03-18 03:31:00,65.2,62.5,29.76,SSE,158,4.0,4.9,91,0.00,,---,0.00,VWS V14.01,2013-03-18 08:31:00,
2013-03-18 03:36:00,65.2,62.5,29.76,SSE,158,2.5,3.1,91,0.00,,---,0.00,VWS V14.01,2013-03-18 08:36:00,
2013-03-18 03:41:00,65.0,62.3,29.76,SSE,158,2.9,7.2,91,0.00,,---,0.00,VWS V14.01,2013-03-18 08:41:00,
2013-03-18 03:46:00,65.0,62.3,29.76,SSW,202,3.4,3.4,91,0.00,,---,0.00,VWS V14.01,2013-03-18 08:46:00,
2013-03-18 03:51:00,65.0,62.3,29.76,SSE,158,2.7,3.4,91,0.00,,---,0.00,VWS V14.01,2013-03-18 08:51:00,
2013-03-18 03:56:00,64.9,62.2,29.76,SE,135,3.6,3.8,91,0.00,,---,0.00,VWS V14.01,2013-03-18 08:56:00,
2013-03-18 04:01:00,64.9,62.2,29.76,SSE,158,0.0,4.9,91,0.00,,---,0.00,VWS V14.01,2013-03-18 09:01:00,
2013-03-18 04:06:00,64.9,62.2,29.76,SSE,158,3.8,4.3,91,0.00,,---,0.00,VWS V14.01,2013-03-18 09:06:00,
2013-03-18 04:11:00,64.9,62.2,29.76,SSE,158,2.5,2.5,91,0.00,,---,0.00,VWS V14.01,2013-03-18 09:11:00,
2013-03-18 04:16:00,64.9,62.2,29.76,SW,225,5.6,5.8,91,0.00,,---,0.00,VWS V14.01,2013-03-18 09:16:00,
2013-03-18 04:21:00,64.9,62.2,29.76,SE,135,1.6,3.6,91,0.00,,---,0.00,VWS V14.01,2013-03-18 09:21:00,
2013-03-18 04:26:00,64.9,62.2,29.76,SSE,158,3.8,3.8,91,0.00,,---,0.00,VWS V14.01,2013-03-18 09:26:00,
2013-03-18 04:31:00,64.9,62.2,29.76,SSE,158,2.9,2.9,91,0.00,,---,0.00,VWS V14.01,2013-03-18 09:31:00,
2013-03-18 04:36:00,64.9,62.2,29.76,SSE,158,2.5,2.7,91,0.00,,---,0.00,VWS V14.01,2013-03-18 09:36:00,
2013-03-18 04:42:00,64.9,62.2,29.76,SSE,158,3.8,3.8,91,0.00,,---,0.00,VWS V14.01,2013-03-18 09:42:00,
2013-03-18 04:47:00,64.9,62.2,29.76,SSE,158,2.5,4.0,91,0.00,,---,0.00,VWS V14.01,2013-03-18 09:47:00,
2013-03-18 04:52:00,64.9,62.2,29.76,SE,135,2.7,4.0,91,0.00,,---,0.00,VWS V14.01,2013-03-18 09:52:00,
2013-03-18 04:57:00,64.9,62.2,29.76,SSE,158,2.0,4.0,91,0.00,,---,0.00,VWS V14.01,2013-03-18 09:57:00,
2013-03-18 05:02:00,64.9,62.5,29.76,SSE,158,6.3,6.3,92,0.00,,---,0.00,VWS V14.01,2013-03-18 10:02:00,
2013-03-18 05:07:00,64.9,62.5,29.76,SSE,158,1.1,2.7,92,0.00,,---,0.00,VWS V14.01,2013-03-18 10:07:00,
2013-03-18 05:12:00,64.9,62.5,29.76,SE,135,2.5,3.6,92,0.00,,---,0.00,VWS V14.01,2013-03-18 10:12:00,
2013-03-18 05:17:00,64.9,62.5,29.76,SSE,158,4.3,4.3,92,0.00,,---,0.00,VWS V14.01,2013-03-18 10:17:00,
2013-03-18 05:22:00,64.9,62.5,29.76,SSE,158,3.4,3.6,92,0.00,,---,0.00,VWS V14.01,2013-03-18 10:22:00,
2013-03-18 05:27:00,64.9,62.5,29.76,South,180,0.0,2.5,92,0.00,,---,0.00,VWS V14.01,2013-03-18 10:27:00,
2013-03-18 05:32:00,64.7,62.3,29.76,SSE,158,3.1,4.0,92,0.00,,---,0.00,VWS V14.01,2013-03-18 10:32:00,
2013-03-18 05:37:00,64.7,62.3,29.76,SSE,158,1.1,2.2,92,0.00,,---,0.00,VWS V14.01,2013-03-18 10:37:00,
2013-03-18 05:42:00,64.7,62.3,29.76,South,180,0.0,2.9,92,0.00,,---,0.00,VWS V14.01,2013-03-18 10:42:00,
2013-03-18 05:47:00,64.7,62.3,29.76,SSE,158,2.7,2.7,92,0.00,,---,0.00,VWS V14.01,2013-03-18 10:47:00,
2013-03-18 05:52:00,64.5,62.1,29.76,SE,135,0.9,0.9,92,0.00,,---,0.00,VWS V14.01,2013-03-18 10:52:00,
2013-03-18 05:57:00,64.5,62.1,29.76,SSE,158,3.4,3.4,92,0.00,,---,0.00,VWS V14.01,2013-03-18 10:57:00,
2013-03-18 06:02:00,64.7,62.6,29.79,ESE,112,1.3,1.3,93,0.00,,---,0.00,VWS V14.01,2013-03-18 11:02:00,
2013-03-18 06:07:00,64.7,62.6,29.79,SSE,158,4.3,4.3,93,0.00,,---,0.00,VWS V14.01,2013-03-18 11:07:00,
2013-03-18 06:12:00,64.5,62.1,29.79,SSE,158,2.9,3.1,92,0.00,,---,0.00,VWS V14.01,2013-03-18 11:12:00,
2013-03-18 06:17:00,64.5,62.4,29.76,SE,135,1.3,3.4,93,0.00,,---,0.00,VWS V14.01,2013-03-18 11:17:00,
2013-03-18 06:22:00,64.5,62.4,29.76,SSW,202,1.6,2.2,93,0.00,,---,0.00,VWS V14.01,2013-03-18 11:22:00,
2013-03-18 06:27:00,64.7,62.6,29.76,SSE,158,3.4,3.4,93,0.00,,---,0.00,VWS V14.01,2013-03-18 11:27:00,
2013-03-18 06:32:00,64.7,62.6,29.76,SE,135,0.0,2.2,93,0.00,,---,0.00,VWS V14.01,2013-03-18 11:32:00,
2013-03-18 06:37:00,64.7,62.6,29.76,SSE,158,0.0,2.0,93,0.00,,---,0.00,VWS V14.01,2013-03-18 11:37:00,
2013-03-18 06:42:00,64.5,62.4,29.76,SSE,158,1.1,1.1,93,0.00,,---,0.00,VWS V14.01,2013-03-18 11:42:00,
2013-03-18 06:47:00,64.5,62.4,29.79,ESE,112,3.1,3.1,93,0.00,,---,0.00,VWS V14.01,2013-03-18 11:47:00,
2013-03-18 06:52:00,64.5,62.4,29.79,South,180,5.6,5.6,93,0.00,,---,0.00,VWS V14.01,2013-03-18 11:52:00,
2013-03-18 06:57:00,64.7,62.9,29.79,SSE,158,2.7,2.7,94,0.00,,---,0.00,VWS V14.01,2013-03-18 11:57:00,
2013-03-18 07:03:00,64.7,62.9,29.79,SSE,158,2.9,2.9,94,0.00,,---,0.00,VWS V14.01,2013-03-18 12:03:00,
2013-03-18 07:08:00,64.9,63.1,29.79,SE,135,2.2,3.1,94,0.00,,---,0.00,VWS V14.01,2013-03-18 12:08:00,
2013-03-18 07:13:00,64.9,63.1,29.79,SW,225,0.9,3.8,94,0.00,,---,0.00,VWS V14.01,2013-03-18 12:13:00,
2013-03-18 07:18:00,64.9,63.1,29.79,SSW,202,0.0,0.0,94,0.00,,---,0.00,VWS V14.01,2013-03-18 12:18:00,
2013-03-18 07:23:00,64.7,62.9,29.79,SSE,158,2.9,2.9,94,0.00,,---,0.00,VWS V14.01,2013-03-18 12:23:00,
2013-03-18 07:28:00,64.7,62.9,29.79,SE,135,3.6,3.6,94,0.00,,---,0.00,VWS V14.01,2013-03-18 12:28:00,
2013-03-18 07:33:00,64.9,63.1,29.79,SSE,158,4.3,4.3,94,0.00,,---,0.00,VWS V14.01,2013-03-18 12:33:00,
2013-03-18 07:38:00,64.9,63.1,29.79,SSW,202,0.0,2.9,94,0.00,,---,0.00,VWS V14.01,2013-03-18 12:38:00,
2013-03-18 07:43:00,65.0,63.3,29.79,SSE,158,2.7,3.4,94,0.00,,---,0.00,VWS V14.01,2013-03-18 12:43:00,
2013-03-18 07:48:00,65.2,63.5,29.79,SSE,158,2.9,3.6,94,0.00,,---,0.00,VWS V14.01,2013-03-18 12:48:00,
2013-03-18 07:53:00,65.2,63.5,29.79,SSE,158,0.0,1.3,94,0.00,,---,0.00,VWS V14.01,2013-03-18 12:53:00,
2013-03-18 07:58:00,65.4,63.6,29.79,ESE,112,2.7,2.9,94,0.00,,---,0.00,VWS V14.01,2013-03-18 12:58:00,
2013-03-18 08:03:00,65.6,63.8,29.79,SE,135,3.6,3.8,94,0.00,,---,0.00,VWS V14.01,2013-03-18 13:03:00,
2013-03-18 08:08:00,65.6,63.8,29.79,WSW,248,3.1,3.1,94,0.00,,---,0.00,VWS V14.01,2013-03-18 13:08:00,
2013-03-18 08:13:00,65.6,63.8,29.79,SSE,158,3.6,3.6,94,0.00,,---,0.00,VWS V14.01,2013-03-18 13:13:00,
2013-03-18 08:18:00,65.8,64.0,29.79,SSE,158,3.6,3.8,94,0.00,,---,0.00,VWS V14.01,2013-03-18 13:18:00,
2013-03-18 08:23:00,66.1,64.3,29.79,SSE,158,0.0,3.4,94,0.00,,---,0.00,VWS V14.01,2013-03-18 13:23:00,
2013-03-18 08:28:00,66.5,64.7,29.79,SSE,158,2.7,5.4,94,0.00,,---,0.00,VWS V14.01,2013-03-18 13:28:00,
2013-03-18 08:33:00,66.8,65.1,29.79,SSW,202,0.0,0.0,94,0.00,,---,0.00,VWS V14.01,2013-03-18 13:33:00,
2013-03-18 08:38:00,67.0,64.9,29.79,SSE,158,3.4,4.0,93,0.00,,---,0.00,VWS V14.01,2013-03-18 13:38:00,
2013-03-18 08:43:00,67.2,64.8,29.79,SSE,158,0.9,4.3,92,0.00,,---,0.00,VWS V14.01,2013-03-18 13:43:00,
2013-03-18 08:48:00,67.6,65.2,29.79,SSW,202,3.4,3.4,92,0.00,,---,0.00,VWS V14.01,2013-03-18 13:48:00,
2013-03-18 08:53:00,67.7,65.3,29.79,SSW,202,2.0,3.4,92,0.00,,---,0.00,VWS V14.01,2013-03-18 13:53:00,
2013-03-18 08:58:00,68.1,65.4,29.79,SSE,158,5.6,6.0,91,0.00,,---,0.00,VWS V14.01,2013-03-18 13:58:00,
2013-03-18 09:03:00,67.9,64.9,29.79,SSE,158,3.6,4.9,90,0.00,,---,0.00,VWS V14.01,2013-03-18 14:03:00,
2013-03-18 09:08:00,68.1,65.1,29.79,SSE,158,2.9,2.9,90,0.00,,---,0.00,VWS V14.01,2013-03-18 14:08:00,
2013-03-18 09:13:00,68.1,65.1,29.79,ESE,112,3.1,4.3,90,0.00,,---,0.00,VWS V14.01,2013-03-18 14:13:00,
2013-03-18 09:18:00,68.5,65.4,29.79,West,270,2.5,6.0,90,0.00,,---,0.00,VWS V14.01,2013-03-18 14:18:00,
2013-03-18 09:23:00,68.8,65.8,29.79,ESE,112,3.1,4.3,90,0.00,,---,0.00,VWS V14.01,2013-03-18 14:23:00,
2013-03-18 09:28:00,70.3,66.9,29.79,SSE,158,1.3,1.6,89,0.00,,---,0.00,VWS V14.01,2013-03-18 14:28:00,
2013-03-18 09:33:00,70.8,66.4,29.79,SE,135,2.7,4.0,86,0.00,,---,0.00,VWS V14.01,2013-03-18 14:33:00,
2013-03-18 09:38:00,70.6,65.9,29.79,SE,135,2.5,2.5,85,0.00,,---,0.00,VWS V14.01,2013-03-18 14:38:00,
2013-03-18 09:43:00,70.3,65.5,29.82,SSE,158,3.8,3.8,85,0.00,,---,0.00,VWS V14.01,2013-03-18 14:43:00,
2013-03-18 09:48:00,69.9,65.2,29.82,SSW,202,1.3,3.4,85,0.00,,---,0.00,VWS V14.01,2013-03-18 14:48:00,
2013-03-18 09:53:00,70.3,65.5,29.82,SSE,158,2.5,2.5,85,0.00,,---,0.00,VWS V14.01,2013-03-18 14:53:00,
2013-03-18 09:58:00,70.8,65.7,29.79,WSW,248,2.2,2.2,84,0.00,,---,0.00,VWS V14.01,2013-03-18 14:58:00,
2013-03-18 10:03:00,71.3,65.9,29.79,SSW,202,2.9,2.9,83,0.00,,---,0.00,VWS V14.01,2013-03-18 15:03:00,
2013-03-18 10:08:00,71.7,65.9,29.79,SSE,158,0.0,2.2,82,0.00,,---,0.00,VWS V14.01,2013-03-18 15:08:00,
2013-03-18 10:13:00,71.9,65.7,29.79,SSE,158,2.5,2.5,81,0.00,,---,0.00,VWS V14.01,2013-03-18 15:13:00,
2013-03-18 10:18:00,72.1,65.6,29.82,SSW,202,0.0,2.2,80,0.00,,---,0.00,VWS V14.01,2013-03-18 15:18:00,
2013-03-18 10:23:00,72.6,66.1,29.82,West,270,1.1,1.1,80,0.00,,---,0.00,VWS V14.01,2013-03-18 15:23:00,
2013-03-18 10:28:00,73.0,66.1,29.82,SSE,158,2.2,2.2,79,0.00,,---,0.00,VWS V14.01,2013-03-18 15:28:00,
2013-03-18 10:33:00,72.8,64.8,29.82,SSW,202,6.0,6.0,76,0.00,,---,0.00,VWS V14.01,2013-03-18 15:33:00,
2013-03-18 10:38:00,73.1,65.5,29.82,WSW,248,2.2,3.1,77,0.00,,---,0.00,VWS V14.01,2013-03-18 15:38:00,
2013-03-18 10:43:00,73.5,65.9,29.82,SSW,202,0.0,2.0,77,0.00,,---,0.00,VWS V14.01,2013-03-18 15:43:00,
2013-03-18 10:48:00,73.5,65.1,29.82,SSW,202,2.5,3.4,75,0.00,,---,0.00,VWS V14.01,2013-03-18 15:48:00,
2013-03-18 10:53:00,73.9,65.1,29.82,SSW,202,3.4,4.3,74,0.00,,---,0.00,VWS V14.01,2013-03-18 15:53:00,
2013-03-18 10:58:00,73.5,64.7,29.79,SSW,202,2.0,2.5,74,0.00,,---,0.00,VWS V14.01,2013-03-18 15:58:00,
2013-03-18 11:03:00,73.9,65.1,29.79,WSW,248,0.0,0.0,74,0.00,,---,0.00,VWS V14.01,2013-03-18 16:03:00,
2013-03-18 11:08:00,74.4,65.2,29.79,ESE,112,2.0,2.9,73,0.00,,---,0.00,VWS V14.01,2013-03-18 16:08:00,
2013-03-18 11:13:00,75.5,65.4,29.79,SSE,158,2.7,2.7,71,0.00,,---,0.00,VWS V14.01,2013-03-18 16:13:00,
2013-03-18 11:18:00,76.0,66.3,29.79,SSE,158,1.3,1.3,72,0.00,,---,0.00,VWS V14.01,2013-03-18 16:18:00,
2013-03-18 11:23:00,76.7,66.2,29.79,SSE,158,0.0,3.4,70,0.00,,---,0.00,VWS V14.01,2013-03-18 16:23:00,
2013-03-18 11:28:00,77.5,65.7,29.79,ESE,112,1.1,3.4,67,0.00,,---,0.00,VWS V14.01,2013-03-18 16:28:00,
2013-03-18 11:33:00,76.7,65.0,29.79,SSE,158,5.8,5.8,67,0.00,,---,0.00,VWS V14.01,2013-03-18 16:33:00,
2013-03-18 11:38:00,77.5,64.8,29.79,SSE,158,6.0,6.0,65,0.00,,---,0.00,VWS V14.01,2013-03-18 16:38:00,
2013-03-18 11:44:00,79.1,65.0,29.76,SSE,158,3.4,3.8,62,0.00,,---,0.00,VWS V14.01,2013-03-18 16:44:00,
2013-03-18 11:49:00,79.8,64.7,29.76,SSE,158,4.0,4.9,60,0.00,,---,0.00,VWS V14.01,2013-03-18 16:49:00,
2013-03-18 11:54:00,79.6,63.1,29.76,SSE,158,5.4,6.3,57,0.00,,---,0.00,VWS V14.01,2013-03-18 16:54:00,
2013-03-18 11:59:00,81.8,65.6,29.76,SSE,158,6.3,6.5,58,0.00,,---,0.00,VWS V14.01,2013-03-18 16:59:00,
2013-03-18 12:04:00,81.4,64.7,29.76,SSE,158,1.6,4.3,57,0.00,,---,0.00,VWS V14.01,2013-03-18 17:04:00,
2013-03-18 12:09:00,82.7,63.8,29.76,SSE,158,6.0,11.4,53,0.00,,---,0.00,VWS V14.01,2013-03-18 17:09:00,
2013-03-18 12:14:00,83.8,63.7,29.76,SSE,158,2.0,8.1,51,0.00,,---,0.00,VWS V14.01,2013-03-18 17:14:00,
2013-03-18 12:19:00,83.0,62.5,29.76,WSW,248,6.0,7.8,50,0.00,,---,0.00,VWS V14.01,2013-03-18 17:19:00,
2013-03-18 12:24:00,82.1,61.1,29.76,SSW,202,3.8,6.3,49,0.00,,---,0.00,VWS V14.01,2013-03-18 17:24:00,
2013-03-18 12:29:00,82.1,61.7,29.76,SSE,158,6.0,7.6,50,0.00,,---,0.00,VWS V14.01,2013-03-18 17:29:00,
2013-03-18 12:34:00,82.5,62.0,29.76,SSE,158,5.4,5.4,50,0.00,,---,0.00,VWS V14.01,2013-03-18 17:34:00,
2013-03-18 12:39:00,82.7,61.0,29.76,SSW,202,3.1,8.7,48,0.00,,---,0.00,VWS V14.01,2013-03-18 17:39:00,
2013-03-18 12:44:00,82.3,61.8,29.76,SE,135,6.3,9.8,50,0.00,,---,0.00,VWS V14.01,2013-03-18 17:44:00,
2013-03-18 12:49:00,83.2,62.1,29.76,SSE,158,2.9,2.9,49,0.00,,---,0.00,VWS V14.01,2013-03-18 17:49:00,
2013-03-18 12:54:00,83.0,61.3,29.76,SSE,158,5.8,5.8,48,0.00,,---,0.00,VWS V14.01,2013-03-18 17:54:00,
2013-03-18 12:59:00,83.8,61.4,29.76,WSW,248,3.1,5.8,47,0.00,,---,0.00,VWS V14.01,2013-03-18 17:59:00,
2013-03-18 13:04:00,83.2,60.9,29.76,SSW,202,2.2,5.6,47,0.00,,---,0.00,VWS V14.01,2013-03-18 18:04:00,
2013-03-18 13:09:00,83.9,62.2,29.76,WSW,248,2.7,2.7,48,0.00,,---,0.00,VWS V14.01,2013-03-18 18:09:00,
2013-03-18 13:14:00,82.9,60.6,29.76,SSW,202,2.9,4.0,47,0.00,,---,0.00,VWS V14.01,2013-03-18 18:14:00,
2013-03-18 13:19:00,83.2,60.9,29.76,SSW,202,5.4,5.4,47,0.00,,---,0.00,VWS V14.01,2013-03-18 18:19:00,
2013-03-18 13:24:00,83.9,61.0,29.76,SSE,158,5.4,5.4,46,0.00,,---,0.00,VWS V14.01,2013-03-18 18:24:00,
2013-03-18 13:29:00,84.8,62.4,29.76,SSE,158,5.6,7.8,47,0.00,,---,0.00,VWS V14.01,2013-03-18 18:29:00,
2013-03-18 13:34:00,83.9,60.3,29.76,ESE,112,9.8,9.8,45,0.00,,---,0.00,VWS V14.01,2013-03-18 18:34:00,
2013-03-18 13:39:00,84.8,61.2,29.76,West,270,0.0,3.8,45,0.00,,---,0.00,VWS V14.01,2013-03-18 18:39:00,
2013-03-18 13:44:00,84.8,61.2,29.76,SSE,158,3.4,3.4,45,0.00,,---,0.00,VWS V14.01,2013-03-18 18:44:00,
2013-03-18 13:49:00,84.8,60.5,29.76,NE,45,2.9,3.4,44,0.00,,---,0.00,VWS V14.01,2013-03-18 18:49:00,
2013-03-18 13:54:00,85.4,60.4,29.76,SSE,158,12.8,12.8,43,0.00,,---,0.00,VWS V14.01,2013-03-18 18:54:00,
2013-03-18 13:59:00,85.7,61.3,29.74,SSE,158,7.4,10.3,44,0.00,,---,0.00,VWS V14.01,2013-03-18 18:59:00,
2013-03-18 14:04:00,86.8,61.7,29.74,SSE,158,7.2,7.2,43,0.00,,---,0.00,VWS V14.01,2013-03-18 19:04:00,
2013-03-18 14:09:00,85.9,60.2,29.74,SSE,158,4.0,4.3,42,0.00,,---,0.00,VWS V14.01,2013-03-18 19:09:00,
2013-03-18 14:14:00,86.3,60.5,29.74,SSE,158,6.5,6.5,42,0.00,,---,0.00,VWS V14.01,2013-03-18 19:14:00,
2013-03-18 14:19:00,86.5,61.3,29.74,SW,225,2.5,6.0,43,0.00,,---,0.00,VWS V14.01,2013-03-18 19:19:00,
2013-03-18 14:24:00,87.5,61.0,29.74,NNE,22,1.6,1.6,41,0.00,,---,0.00,VWS V14.01,2013-03-18 19:24:00,
2013-03-18 14:29:00,88.6,61.9,29.74,SSW,202,3.1,3.1,41,0.00,,---,0.00,VWS V14.01,2013-03-18 19:29:00,
2013-03-18 14:34:00,89.3,61.2,29.74,SSE,158,6.5,6.5,39,0.00,,---,0.00,VWS V14.01,2013-03-18 19:34:00,
2013-03-18 14:39:00,88.8,60.7,29.74,SSW,202,3.6,7.2,39,0.00,,---,0.00,VWS V14.01,2013-03-18 19:39:00,
2013-03-18 14:44:00,87.7,59.7,29.74,SSE,158,0.0,2.9,39,0.00,,---,0.00,VWS V14.01,2013-03-18 19:44:00,
2013-03-18 14:49:00,87.5,60.3,29.74,SSE,158,3.6,3.6,40,0.00,,---,0.00,VWS V14.01,2013-03-18 19:49:00,
2013-03-18 14:54:00,86.1,59.7,29.74,South,180,1.3,3.8,41,0.00,,---,0.00,VWS V14.01,2013-03-18 19:54:00,
2013-03-18 14:59:00,86.8,60.3,29.74,SSW,202,0.0,0.0,41,0.00,,---,0.00,VWS V14.01,2013-03-18 19:59:00,
2013-03-18 15:04:00,85.6,59.9,29.74,NNW,338,0.0,0.0,42,0.00,,---,0.00,VWS V14.01,2013-03-18 20:04:00,
2013-03-18 15:09:00,84.7,59.7,29.74,SW,225,2.5,3.4,43,0.00,,---,0.00,VWS V14.01,2013-03-18 20:09:00,
2013-03-18 15:14:00,83.9,59.1,29.74,SSW,202,2.5,2.5,43,0.00,,---,0.00,VWS V14.01,2013-03-18 20:14:00,
2013-03-18 15:19:00,83.6,59.4,29.74,WSW,248,0.0,1.1,44,0.00,,---,0.00,VWS V14.01,2013-03-18 20:19:00,
2013-03-18 15:24:00,83.8,59.5,29.74,SSW,202,0.9,1.3,44,0.00,,---,0.00,VWS V14.01,2013-03-18 20:24:00,
2013-03-18 15:29:00,85.4,60.4,29.74,ESE,112,1.3,2.7,43,0.00,,---,0.00,VWS V14.01,2013-03-18 20:29:00,
2013-03-18 15:34:00,84.7,59.7,29.74,SSE,158,1.3,2.0,43,0.00,,---,0.00,VWS V14.01,2013-03-18 20:34:00,
2013-03-18 15:40:00,84.3,60.0,29.74,South,180,1.6,2.0,44,0.00,,---,0.00,VWS V14.01,2013-03-18 20:40:00,
2013-03-18 15:45:00,85.2,60.8,29.74,WNW,292,0.0,1.3,44,0.00,,---,0.00,VWS V14.01,2013-03-18 20:45:00,
2013-03-18 15:50:00,84.8,60.5,29.74,West,270,0.0,0.0,44,0.00,,---,0.00,VWS V14.01,2013-03-18 20:50:00,
2013-03-18 15:55:00,84.3,59.4,29.74,WNW,292,1.6,2.5,43,0.00,,---,0.00,VWS V14.01,2013-03-18 20:55:00,
2013-03-18 16:00:00,82.9,58.7,29.71,WNW,292,1.3,2.0,44,0.00,,---,0.00,VWS V14.01,2013-03-18 21:00:00,
2013-03-18 16:05:00,81.8,58.4,29.71,NNW,338,0.0,0.0,45,0.00,,---,0.00,VWS V14.01,2013-03-18 21:05:00,
2013-03-18 16:10:00,80.7,58.6,29.71,NNW,338,2.2,2.5,47,0.00,,---,0.00,VWS V14.01,2013-03-18 21:10:00,
2013-03-18 16:15:00,78.7,56.8,29.71,WNW,292,2.7,3.8,47,0.00,,---,0.00,VWS V14.01,2013-03-18 21:15:00,
2013-03-18 16:20:00,77.3,56.7,29.71,SSE,158,1.1,3.1,49,0.00,,---,0.00,VWS V14.01,2013-03-18 21:20:00,
2013-03-18 16:25:00,76.0,57.1,29.71,WNW,292,7.8,9.2,52,0.00,,---,0.00,VWS V14.01,2013-03-18 21:25:00,
2013-03-18 16:30:00,73.9,56.7,29.76,WNW,292,7.6,7.8,55,0.00,,---,0.00,VWS V14.01,2013-03-18 21:30:00,
2013-03-18 16:35:00,67.6,57.0,29.76,West,270,10.1,14.3,69,0.29,,---,0.29,VWS V14.01,2013-03-18 21:35:00,
2013-03-18 16:40:00,64.1,58.9,29.76,ENE,68,5.4,7.8,83,0.41,,---,0.41,VWS V14.01,2013-03-18 21:40:00,
2013-03-18 16:45:00,62.5,58.9,29.74,North,0,7.8,7.8,88,0.54,,---,0.54,VWS V14.01,2013-03-18 21:45:00,
2013-03-18 16:50:00,62.5,60.2,29.74,North,0,5.6,5.6,92,0.66,,---,0.66,VWS V14.01,2013-03-18 21:50:00,
2013-03-18 16:55:00,62.5,60.8,29.74,NNE,22,3.8,4.0,94,0.70,,---,0.70,VWS V14.01,2013-03-18 21:55:00,
2013-03-18 17:00:00,62.3,60.9,29.74,NNE,22,3.1,3.6,95,0.79,,---,0.79,VWS V14.01,2013-03-18 22:00:00,
2013-03-18 17:05:00,61.6,59.9,29.74,SSW,202,4.3,5.4,94,0.87,,---,0.87,VWS V14.01,2013-03-18 22:05:00,
2013-03-18 17:10:00,61.4,60.0,29.74,ENE,68,4.3,5.8,95,0.87,,---,0.87,VWS V14.01,2013-03-18 22:10:00,
2013-03-18 17:15:00,61.3,60.1,29.74,ESE,112,1.6,2.0,96,0.91,,---,0.91,VWS V14.01,2013-03-18 22:15:00,
2013-03-18 17:20:00,61.1,59.9,29.74,SSW,202,1.1,3.1,96,0.91,,---,0.91,VWS V14.01,2013-03-18 22:20:00,
2013-03-18 17:25:00,61.1,59.6,29.74,WSW,248,1.3,1.6,95,0.91,,---,0.91,VWS V14.01,2013-03-18 22:25:00,
2013-03-18 17:30:00,61.6,60.5,29.74,WSW,248,0.0,0.0,96,0.91,,---,0.91,VWS V14.01,2013-03-18 22:30:00,
2013-03-18 17:35:00,62.3,60.9,29.74,WNW,292,0.0,0.0,95,0.79,,---,0.91,VWS V14.01,2013-03-18 22:35:00,
2013-03-18 17:40:00,63.1,61.6,29.74,NW,315,0.0,0.0,95,0.50,,---,0.91,VWS V14.01,2013-03-18 22:40:00,
2013-03-18 17:45:00,63.6,61.8,29.74,SSE,158,1.3,1.3,94,0.37,,---,0.91,VWS V14.01,2013-03-18 22:45:00,
2013-03-18 17:50:00,63.8,62.3,29.74,SSE,158,3.6,4.3,95,0.25,,---,0.91,VWS V14.01,2013-03-18 22:50:00,
2013-03-18 17:55:00,63.8,62.0,29.74,SSE,158,3.1,3.4,94,0.25,,---,0.91,VWS V14.01,2013-03-18 22:55:00,
2013-03-18 18:00:00,63.2,61.2,29.74,SE,135,2.9,2.9,93,0.12,,---,0.91,VWS V14.01,2013-03-18 23:00:00,
2013-03-18 18:05:00,62.9,60.5,29.74,NE,45,0.0,2.5,92,0.04,,---,0.91,VWS V14.01,2013-03-18 23:05:00,
2013-03-18 18:10:00,62.7,60.7,29.74,WSW,248,1.6,1.6,93,0.04,,---,0.91,VWS V14.01,2013-03-18 23:10:00,
2013-03-18 18:15:00,62.5,60.5,29.76,NNW,338,0.0,0.0,93,0.00,,---,0.91,VWS V14.01,2013-03-18 23:15:00,
2013-03-18 18:20:00,62.3,60.3,29.76,SSE,158,3.4,3.6,93,0.00,,---,0.91,VWS V14.01,2013-03-18 23:20:00,
2013-03-18 18:25:00,62.3,60.9,29.76,SSW,202,1.1,2.2,95,0.00,,---,0.91,VWS V14.01,2013-03-18 23:25:00,
2013-03-18 18:30:00,62.2,60.7,29.76,SSE,158,3.1,3.1,95,0.00,,---,0.91,VWS V14.01,2013-03-18 23:30:00,
2013-03-18 18:35:00,62.0,60.2,29.76,ENE,68,0.0,0.0,94,0.00,,---,0.91,VWS V14.01,2013-03-18 23:35:00,
2013-03-18 18:40:00,62.0,60.5,29.76,West,270,0.0,0.0,95,0.00,,---,0.91,VWS V14.01,2013-03-18 23:40:00,
2013-03-18 18:45:00,62.0,60.8,29.76,WNW,292,0.0,0.0,96,0.00,,---,0.91,VWS V14.01,2013-03-18 23:45:00,
2013-03-18 18:50:00,62.0,60.5,29.76,NNW,338,0.0,0.0,95,0.00,,---,0.91,VWS V14.01,2013-03-18 23:50:00,
2013-03-18 18:55:00,62.0,60.8,29.76,North,0,0.0,1.6,96,0.00,,---,0.91,VWS V14.01,2013-03-18 23:55:00,
2013-03-18 19:00:00,61.8,60.7,29.76,NNE,22,0.0,0.0,96,0.00,,---,0.91,VWS V14.01,2013-03-19 00:00:00,
2013-03-18 19:05:00,61.8,60.9,29.76,WNW,292,2.5,2.5,97,0.00,,---,0.91,VWS V14.01,2013-03-19 00:05:00,
2013-03-18 19:19:00,61.4,60.6,29.76,North,0,0.0,0.0,97,0.00,,---,0.91,VWS V14.01,2013-03-19 00:19:00,
2013-03-18 19:24:00,61.6,60.8,29.76,SSW,202,0.0,0.0,97,0.00,,---,0.91,VWS V14.01,2013-03-19 00:24:00,
2013-03-18 19:29:00,61.6,60.8,29.79,SSE,158,2.9,2.9,97,0.00,,---,0.91,VWS V14.01,2013-03-19 00:29:00,
2013-03-18 19:34:00,61.6,60.8,29.79,SSE,158,0.0,0.0,97,0.00,,---,0.91,VWS V14.01,2013-03-19 00:34:00,
2013-03-18 19:39:00,61.8,61.2,29.79,North,0,0.0,0.0,98,0.00,,---,0.91,VWS V14.01,2013-03-19 00:39:00,
2013-03-18 19:44:00,61.6,61.0,29.79,North,0,0.0,0.0,98,0.00,,---,0.91,VWS V14.01,2013-03-19 00:44:00,
2013-03-18 19:49:00,61.4,60.9,29.79,NW,315,0.0,0.0,98,0.00,,---,0.91,VWS V14.01,2013-03-19 00:49:00,
2013-03-18 19:54:00,61.4,60.9,29.79,NNW,338,0.0,0.0,98,0.00,,---,0.91,VWS V14.01,2013-03-19 00:54:00,
2013-03-18 20:00:00,61.3,60.7,29.79,NNW,338,0.0,0.0,98,0.00,,---,0.91,VWS V14.01,2013-03-19 01:00:00,
2013-03-18 20:05:00,61.3,60.7,29.79,North,0,0.0,0.0,98,0.00,,---,0.91,VWS V14.01,2013-03-19 01:05:00,
2013-03-18 20:10:00,61.3,60.7,29.79,North,0,0.0,0.0,98,0.00,,---,0.91,VWS V14.01,2013-03-19 01:10:00,
2013-03-18 20:15:00,61.3,60.7,29.79,WNW,292,0.0,0.0,98,0.00,,---,0.91,VWS V14.01,2013-03-19 01:15:00,
2013-03-18 20:20:00,61.3,60.7,29.79,West,270,0.0,0.0,98,0.00,,---,0.91,VWS V14.01,2013-03-19 01:20:00,
2013-03-18 20:25:00,61.3,60.7,29.79,NE,45,0.0,0.0,98,0.00,,---,0.91,VWS V14.01,2013-03-19 01:25:00,
2013-03-18 20:30:00,61.3,60.7,29.82,SSW,202,0.0,0.0,98,0.00,,---,0.91,VWS V14.01,2013-03-19 01:30:00,
2013-03-18 20:35:00,61.1,60.5,29.82,SW,225,0.0,0.0,98,0.00,,---,0.91,VWS V14.01,2013-03-19 01:35:00,
2013-03-18 20:40:00,61.1,60.5,29.82,West,270,0.0,0.0,98,0.00,,---,0.91,VWS V14.01,2013-03-19 01:40:00,
2013-03-18 20:45:00,61.1,60.5,29.82,NW,315,0.0,0.0,98,0.00,,---,0.91,VWS V14.01,2013-03-19 01:45:00,
2013-03-18 20:50:00,61.1,60.5,29.82,WNW,292,0.0,0.0,98,0.00,,---,0.91,VWS V14.01,2013-03-19 01:50:00,
2013-03-18 20:55:00,61.1,60.5,29.82,WNW,292,0.0,0.0,98,0.00,,---,0.91,VWS V14.01,2013-03-19 01:55:00,
2013-03-18 21:00:00,61.1,60.5,29.85,WNW,292,0.0,0.0,98,0.00,,---,0.91,VWS V14.01,2013-03-19 02:00:00,
2013-03-18 21:05:00,61.1,60.5,29.85,SE,135,0.0,0.0,98,0.00,,---,0.91,VWS V14.01,2013-03-19 02:05:00,
2013-03-18 21:10:00,61.1,60.5,29.85,SE,135,0.0,0.0,98,0.00,,---,0.91,VWS V14.01,2013-03-19 02:10:00,
2013-03-18 21:15:00,61.1,60.5,29.85,NW,315,0.0,0.0,98,0.00,,---,0.91,VWS V14.01,2013-03-19 02:15:00,
2013-03-18 21:20:00,61.1,60.5,29.85,NNW,338,0.0,0.0,98,0.00,,---,0.91,VWS V14.01,2013-03-19 02:20:00,
2013-03-18 21:25:00,60.9,60.3,29.85,NNW,338,0.0,0.0,98,0.00,,---,0.91,VWS V14.01,2013-03-19 02:25:00,
2013-03-18 21:30:00,60.9,60.3,29.85,NNW,338,3.1,3.1,98,0.00,,---,0.91,VWS V14.01,2013-03-19 02:30:00,
2013-03-18 21:35:00,61.1,60.5,29.85,WNW,292,2.9,2.9,98,0.00,,---,0.91,VWS V14.01,2013-03-19 02:35:00,
2013-03-18 21:40:00,60.9,60.3,29.85,NNE,22,2.0,2.0,98,0.00,,---,0.91,VWS V14.01,2013-03-19 02:40:00,
2013-03-18 21:45:00,60.7,60.2,29.85,North,0,0.0,0.0,98,0.00,,---,0.91,VWS V14.01,2013-03-19 02:45:00,
2013-03-18 21:50:00,60.7,60.2,29.85,North,0,0.0,0.0,98,0.00,,---,0.91,VWS V14.01,2013-03-19 02:50:00,
2013-03-18 21:55:00,60.5,60.0,29.85,NNW,338,0.0,0.0,98,0.00,,---,0.91,VWS V14.01,2013-03-19 02:55:00,
2013-03-18 22:00:00,60.5,60.0,29.88,NNW,338,0.0,0.0,98,0.00,,---,0.91,VWS V14.01,2013-03-19 03:00:00,
2013-03-18 22:05:00,60.5,60.0,29.88,NNE,22,2.9,3.6,98,0.00,,---,0.91,VWS V14.01,2013-03-19 03:05:00,
2013-03-18 22:10:00,60.4,59.8,29.88,North,0,3.4,3.4,98,0.00,,---,0.91,VWS V14.01,2013-03-19 03:10:00,
2013-03-18 22:15:00,60.4,59.8,29.85,NNW,338,3.6,4.9,98,0.00,,---,0.91,VWS V14.01,2013-03-19 03:15:00,
2013-03-18 22:20:00,60.0,59.4,29.85,NNW,338,0.0,0.0,98,0.00,,---,0.91,VWS V14.01,2013-03-19 03:20:00,
2013-03-18 22:25:00,59.8,59.3,29.85,NNW,338,1.6,2.7,98,0.00,,---,0.91,VWS V14.01,2013-03-19 03:25:00,
2013-03-18 22:30:00,59.6,59.1,29.88,NNW,338,0.0,0.0,98,0.00,,---,0.91,VWS V14.01,2013-03-19 03:30:00,
2013-03-18 22:35:00,59.5,58.9,29.88,NNW,338,4.0,4.0,98,0.00,,---,0.91,VWS V14.01,2013-03-19 03:35:00,
2013-03-18 22:40:00,59.3,58.4,29.88,NNW,338,2.7,3.1,97,0.00,,---,0.91,VWS V14.01,2013-03-19 03:40:00,
2013-03-18 22:45:00,59.1,58.2,29.91,NNW,338,0.0,2.2,97,0.00,,---,0.91,VWS V14.01,2013-03-19 03:45:00,
2013-03-18 22:50:00,58.9,57.8,29.91,ENE,68,2.0,2.7,96,0.00,,---,0.91,VWS V14.01,2013-03-19 03:50:00,
2013-03-18 22:55:00,58.7,57.6,29.91,NNW,338,2.0,2.0,96,0.00,,---,0.91,VWS V14.01,2013-03-19 03:55:00,
2013-03-18 23:00:00,58.7,57.6,29.91,North,0,2.0,2.9,96,0.00,,---,0.91,VWS V14.01,2013-03-19 04:00:00,
2013-03-18 23:05:00,58.4,57.0,29.91,West,270,3.1,3.1,95,0.00,,---,0.91,VWS V14.01,2013-03-19 04:05:00,
2013-03-18 23:10:00,58.0,56.3,29.91,NNW,338,3.4,3.4,94,0.00,,---,0.91,VWS V14.01,2013-03-19 04:10:00,
2013-03-18 23:15:00,57.7,55.7,29.91,NNW,338,0.0,3.6,93,0.00,,---,0.91,VWS V14.01,2013-03-19 04:15:00,
2013-03-18 23:20:00,57.3,55.3,29.91,NNW,338,0.9,2.9,93,0.00,,---,0.91,VWS V14.01,2013-03-19 04:20:00,
2013-03-18 23:25:00,56.9,54.9,29.91,NNW,338,1.6,3.1,93,0.00,,---,0.91,VWS V14.01,2013-03-19 04:25:00,
2013-03-18 23:30:00,56.6,54.6,29.91,North,0,3.6,6.0,93,0.00,,---,0.91,VWS V14.01,2013-03-19 04:30:00,
2013-03-18 23:35:00,56.4,54.4,29.91,NNE,22,3.1,3.1,93,0.00,,---,0.91,VWS V14.01,2013-03-19 04:35:00,
2013-03-18 23:41:00,56.0,54.3,29.91,NNW,338,4.0,4.0,94,0.00,,---,0.91,VWS V14.01,2013-03-19 04:41:00,
2013-03-18 23:46:00,55.9,54.2,29.94,North,0,3.1,4.3,94,0.00,,---,0.91,VWS V14.01,2013-03-19 04:46:00,
2013-03-18 23:51:00,55.5,53.8,29.94,NW,315,5.6,6.0,94,0.00,,---,0.91,VWS V14.01,2013-03-19 04:51:00,
2013-03-18 23:56:00,55.5,53.8,29.94,NNW,338,2.7,3.1,94,0.00,,---,0.91,VWS V14.01,2013-03-19 04:56:00,